Winston Salem, North Carolina
Current Conditions -  °F | °C
As of 12:54 PM on Thursday 23 Oct 2014 (Local Time) from KINT Reporting Station
Clear Clear  
Wind Chill: 64°   Ceiling: Unl
Heat Index: 64°   Visibility: 10mi
Dew Point: 38°   Wind: 9mph
Humidity: 38%   Direction: 330°NNW
Pressure: 30.05"   Gusts: NA
Location:  36.1112°N, 80.1999°W
Report Text: KINT 231654Z 33008KT 10SM CLR 18/03 A3005 RMK AO2 SLP172 T01780033
Loading
Personal Weather Stations






























Interactive Weather Map
Tropical Storm Tracking
New forecast layout! Learn more

10-Day Weather Forecast

Advertisements
Track Severe Weather on mobile